Time;durP1;ratioP1;P1;durP2;ratioP2;P2;SDS_P1;SDS_P2;PMS_P1;PMS_P2;Temp;Humidity;BMP_temperature;BMP_pressure;BME280_temperature;BME280_humidity;BME280_pressure;Samples;Min_cycle;Max_cycle;Signal;HPM_P1;HPM_P2
2023/04/27 09:48:43;;;;;;;;;;;;;;;;;;5098560;22;1946100;-78
2023/04/27 09:51:09;;;;;;;;;;;;;;;;;;5098454;28;19945;-77
2023/04/27 09:53:34;;;;;;;;;;;;;;;;;;5104645;28;20392;-78
2023/04/27 09:56:00;;;;;;;;;;;;;;;;;;5096310;28;19951;-74
2023/04/27 09:58:26;;;;;;;;;;;;;;;;;;5109862;28;20380;-73
2023/04/27 10:00:52;;;;;;;;;;;;;;;;;;5072562;28;19962;-74
2023/04/27 10:04:52;;;;;;;;;;;;;;;;;;5095328;27;19912;-74
2023/04/27 10:07:18;;;;;;;;;;;;;;;;;;5089278;28;20010;-73
2023/04/27 10:09:45;;;;;;;;;;;;;;;;;;5082174;28;19948;-73
2023/04/27 10:12:11;;;;;;;;;;;;;;;;;;5091925;28;20331;-75
2023/04/27 10:14:36;;;;;;;;;;;;;;;;;;5086853;28;19908;-75
2023/04/27 10:17:02;;;;;;;;;;;;;;;;;;5108632;22;19940;-71
2023/04/27 10:19:29;;;;;;;;;;;;;;;;;;5071124;28;19912;-72
2023/04/27 10:22:28;;;;;;;;;;;;;;;;;;5086719;27;20376;-74
2023/04/27 10:24:54;;;;;;;;;;;;;;;;;;5089824;28;20023;-74
2023/04/27 10:27:21;;;;;;;;;;;;;;;;;;5107487;28;19912;-74
2023/04/27 10:29:48;;;;;;;;;;;;;;;;;;5101111;28;19912;-74
2023/04/27 10:32:14;;;;;;;;;;;;;;;;;;5090374;28;20361;-72
2023/04/27 10:34:40;;;;;;;;;;;;;;;;;;5102359;28;19957;-73
2023/04/27 10:37:06;;;;;;;;;;;;;;;;;;5083571;28;20329;-73
2023/04/27 10:39:32;;;;;;;;;;;;;;;;;;5093092;28;19913;-73
2023/04/27 10:41:58;;;;;;;;;;;;;;;;;;5084460;28;19920;-75
2023/04/27 10:44:25;;;;;;;;;;;;;;;;;;5084619;28;20022;-72
2023/04/27 10:46:51;;;;;;;;;;;;;;;;;;5079627;28;20330;-71
2023/04/27 10:49:17;;;;;;;;;;;;;;;;;;5080405;28;19912;-72
2023/04/27 10:51:43;;;;;;;;;;;;;;;;;;5084464;28;19909;-74
2023/04/27 10:54:08;;;;;;;;;;;;;;;;;;5084963;28;20017;-73
2023/04/27 10:56:34;;;;;;;;;;;;;;;;;;5082568;28;19931;-73
2023/04/27 10:59:00;;;;;;;;;;;;;;;;;;5085447;28;19921;-73
2023/04/27 11:01:28;;;;;;;;;;;;;;;;;;5080348;28;19913;-72
2023/04/27 11:03:54;;;;;;;;;;;;;;;;;;5077308;28;19912;-73
2023/04/27 11:06:19;;;;;;;;;;;;;;;;;;5082762;28;19934;-72
2023/04/27 11:08:45;;;;;;;;;;;;;;;;;;5086008;28;19991;-71
2023/04/27 11:11:11;;;;;;;;;;;;;;;;;;5089573;28;20317;-70
2023/04/27 11:13:37;;;;;;;;;;;;;;;;;;5088910;28;19912;-72
2023/04/27 11:16:03;;;;;;;;;;;;;;;;;;5096355;28;19974;-73
2023/04/27 11:18:29;;;;;;;;;;;;;;;;;;5080453;28;19958;-73
2023/04/27 11:20:55;;;;;;;;;;;;;;;;;;5091300;28;20289;-72
2023/04/27 11:23:21;;;;;;;;;;;;;;;;;;5101562;28;23100;-73
2023/04/27 11:25:47;;;;;;;;;;;;;;;;;;5102338;28;20023;-73
2023/04/27 11:28:13;;;;;;;;;;;;;;;;;;5105371;27;20378;-73
2023/04/27 11:30:38;;;;;;;;;;;;;;;;;;5106587;27;19913;-73
2023/04/27 11:33:05;;;;;;;;;;;;;;;;;;5093778;28;20063;-72
2023/04/27 11:35:31;;;;;;;;;;;;;;;;;;5095943;28;20337;-73
2023/04/27 11:37:58;;;;;;;;;;;;;;;;;;5111038;28;19908;-75
2023/04/27 11:40:24;;;;;;;;;;;;;;;;;;5105001;28;19979;-71
2023/04/27 11:42:50;;;;;;;;;;;;;;;;;;5107585;28;19912;-71
2023/04/27 11:45:16;;;;;;;;;;;;;;;;;;5102212;28;19938;-70
2023/04/27 11:47:42;;;;;;;;;;;;;;;;;;5092929;28;20526;-72
2023/04/27 11:50:08;;;;;;;;;;;;;;;;;;5092930;28;19912;-72
2023/04/27 11:52:34;;;;;;;;;;;;;;;;;;5085270;28;19912;-71
2023/04/27 11:55:00;;;;;;;;;;;;;;;;;;5096038;28;19994;-70
2023/04/27 11:57:26;;;;;;;;;;;;;;;;;;5101006;28;20016;-72
2023/04/27 11:59:52;;;;;;;;;;;;;;;;;;5094856;28;19958;-71
2023/04/27 12:02:18;;;;;;;;;;;;;;;;;;5088826;28;19915;-71
2023/04/27 12:04:44;;;;;;;;;;;;;;;;;;5103444;28;19908;-71
2023/04/27 12:07:11;;;;;;;;;;;;;;;;;;5106216;28;20418;-71
2023/04/27 12:09:37;;;;;;;;;;;;;;;;;;5091612;27;19916;-70
2023/04/27 12:12:03;;;;;;;;;;;;;;;;;;5087030;28;20338;-71
2023/04/27 12:14:28;;;;;;;;;;;;;;;;;;5101497;28;19908;-70
2023/04/27 12:16:54;;;;;;;;;;;;;;;;;;5097659;28;19912;-71
2023/04/27 12:19:23;;;;;;;;;;;;;;;;;;5105907;28;19915;-70
2023/04/27 12:21:48;;;;;;;;;;;;;;;;;;5086998;28;19927;-70
2023/04/27 12:24:15;;;;;;;;;;;;;;;;;;5097512;28;19908;-70
2023/04/27 12:26:41;;;;;;;;;;;;;;;;;;5108759;28;20314;-70
2023/04/27 12:29:06;;;;;;;;;;;;;;;;;;5089187;28;19943;-71
2023/04/27 12:31:32;;;;;;;;;;;;;;;;;;5088221;28;19912;-70
2023/04/27 12:33:58;;;;;;;;;;;;;;;;;;5093194;28;20345;-69
2023/04/27 12:36:26;;;;;;;;;;;;;;;;;;5083944;28;19920;-70
2023/04/27 12:38:52;;;;;;;;;;;;;;;;;;5102975;28;19960;-70
2023/04/27 12:41:18;;;;;;;;;;;;;;;;;;5091571;28;19947;-71
2023/04/27 12:43:44;;;;;;;;;;;;;;;;;;5092456;28;19955;-71
2023/04/27 12:46:10;;;;;;;;;;;;;;;;;;5086278;28;20362;-70
2023/04/27 12:48:36;;;;;;;;;;;;;;;;;;5103254;28;19941;-71
2023/04/27 12:51:02;;;;;;;;;;;;;;;;;;5093373;28;19927;-71
2023/04/27 12:53:28;;;;;;;;;;;;;;;;;;5091898;28;19954;-70
2023/04/27 12:55:54;;;;;;;;;;;;;;;;;;5097024;28;19908;-71
2023/04/27 12:58:21;;;;;;;;;;;;;;;;;;5100836;28;20376;-70
2023/04/27 13:00:46;;;;;;;;;;;;;;;;;;5088949;28;20090;-71
2023/04/27 13:03:12;;;;;;;;;;;;;;;;;;5074622;28;19959;-69
2023/04/27 13:05:38;;;;;;;;;;;;;;;;;;5072923;28;19992;-69
2023/04/27 13:08:04;;;;;;;;;;;;;;;;;;5087287;28;20389;-70
2023/04/27 13:10:30;;;;;;;;;;;;;;;;;;5089718;28;19912;-70
2023/04/27 13:12:58;;;;;;;;;;;;;;;;;;5091858;28;19948;-70
2023/04/27 13:15:24;;;;;;;;;;;;;;;;;;5085651;28;19933;-69
2023/04/27 13:29:26;;;;;;;136.35;56.78;;;;;;;;;;5108866;27;20409;-73
2023/04/27 13:31:52;;;;;;;143.90;59.75;;;;;;;;;;5096848;28;20074;-74
2023/04/27 13:34:18;;;;;;;160.40;63.78;;;;;;;;;;5098192;28;20028;-74
2023/04/27 13:36:44;;;;;;;157.35;64.97;;;;;;;;;;5087847;28;20097;-74
2023/04/27 13:39:10;;;;;;;139.10;62.33;;;;;;;;;;5093088;28;20051;-77
2023/04/27 13:41:36;;;;;;;148.43;70.47;;;;;;;;;;5097843;22;21152;-73
2023/04/27 13:44:03;;;;;;;144.20;68.00;;;;;;;;;;5071340;28;20047;-73
2023/04/27 13:46:29;;;;;;;149.80;73.05;;;;;;;;;;5071812;28;20048;-73
2023/04/27 13:48:56;;;;;;;148.35;66.50;;;;;;;;;;5068854;28;20079;-74
2023/04/27 13:51:22;;;;;;;148.93;70.50;;;;;;;;;;5066496;28;20028;-74
2023/04/27 13:53:48;;;;;;;146.02;61.33;;;;;;;;;;5070240;28;20037;-75
2023/04/27 13:56:14;;;;;;;153.43;66.60;;;;;;;;;;5071803;28;20029;-75
2023/04/27 13:58:40;;;;;;;140.32;61.17;;;;;;;;;;5067262;28;20029;-75
2023/04/27 14:01:07;;;;;;;144.20;62.40;;;;;;;;;;5066904;28;20485;-75
2023/04/27 14:03:33;;;;;;;139.82;59.60;;;;;;;;;;5068620;28;20028;-75
2023/04/27 14:06:00;;;;;;;144.02;64.38;;;;;;;;;;5068018;28;20422;-75
2023/04/27 14:08:26;;;;;;;144.35;64.32;;;;;;;;;;5068089;28;20032;-74
2023/04/27 14:10:52;;;;;;;147.10;66.05;;;;;;;;;;5068998;28;20100;-74
2023/04/27 14:13:18;;;;;;;147.98;65.93;;;;;;;;;;5076781;28;20016;-75
2023/04/27 14:15:45;;;;;;;144.13;69.38;;;;;;;;;;5065293;28;20033;-75
2023/04/27 14:18:11;;;;;;;133.13;61.90;;;;;;;;;;5065711;28;20036;-74
2023/04/27 14:20:40;;;;;;;143.90;65.53;;;;;;;;;;5066256;28;20083;-73
2023/04/27 14:23:06;;;;;;;139.35;58.55;;;;;;;;;;5062463;28;20063;-73
2023/04/27 14:25:33;;;;;;;146.13;77.63;;;;;;;;;;5076138;28;20036;-73
2023/04/27 14:28:03;;;;;;;143.55;61.78;;;;;;;;;;5067444;28;20029;-73
2023/04/27 14:30:30;;;;;;;141.55;63.30;;;;;;;;;;5087107;28;20032;-75
2023/04/27 14:32:56;;;;;;;143.45;63.22;;;;;;;;;;5075042;28;20024;-72
2023/04/27 14:35:22;;;;;;;144.75;67.45;;;;;;;;;;5078272;28;20020;-74
2023/04/27 14:37:49;;;;;;;142.32;66.25;;;;;;;;;;5067930;28;20028;-74
2023/04/27 14:40:15;;;;;;;139.93;64.70;;;;;;;;;;5057686;28;20017;-73
2023/04/27 14:42:41;;;;;;;141.60;64.88;;;;;;;;;;5061538;28;20029;-73
2023/04/27 14:45:07;;;;;;;139.45;62.00;;;;;;;;;;5060950;28;20036;-73
2023/04/27 14:47:33;;;;;;;136.20;58.90;;;;;;;;;;5058633;28;20381;-73
2023/04/27 14:49:59;;;;;;;147.18;74.15;;;;;;;;;;5054167;28;20037;-73
2023/04/27 14:52:25;;;;;;;144.52;60.22;;;;;;;;;;5062252;28;21480;-73
2023/04/27 14:54:51;;;;;;;141.45;60.47;;;;;;;;;;5073431;28;20500;-72
2023/04/27 14:57:17;;;;;;;137.68;57.70;;;;;;;;;;5047659;28;20029;-73
2023/04/27 14:59:43;;;;;;;139.18;58.25;;;;;;;;;;5048237;28;20474;-73
2023/04/27 15:02:09;;;;;;;131.00;57.15;;;;;;;;;;5064979;28;20420;-74
2023/04/27 15:04:36;;;;;;;131.60;55.88;;;;;;;;;;5074058;28;20086;-72
2023/04/27 15:07:02;;;;;;;135.70;58.35;;;;;;;;;;5055813;28;20017;-73
2023/04/27 15:09:28;;;;;;;137.07;58.47;;;;;;;;;;5059808;28;20048;-74
2023/04/27 15:11:54;;;;;;;142.30;58.65;;;;;;;;;;5067402;28;20032;-73
2023/04/27 15:14:20;;;;;;;139.82;59.65;;;;;;;;;;5055707;28;20067;-75
2023/04/27 15:16:46;;;;;;;137.25;60.53;;;;;;;;;;5064082;28;20729;-73
2023/04/27 15:19:15;;;;;;;143.40;61.70;;;;;;;;;;5058199;28;20036;-70
2023/04/27 15:21:41;;;;;;;135.27;61.38;;;;;;;;;;5065724;28;20151;-75
2023/04/27 15:24:07;;;;;;;142.70;59.40;;;;;;;;;;5055591;28;20113;-73
2023/04/27 15:26:33;;;;;;;139.45;58.88;;;;;;;;;;5052089;28;20624;-70
2023/04/27 15:28:59;;;;;;;147.60;61.63;;;;;;;;;;5051117;28;20032;-75
2023/04/27 15:31:25;;;;;;;150.50;59.95;;;;;;;;;;5049064;28;20492;-70
2023/04/27 15:33:52;;;;;;;150.15;61.97;;;;;;;;;;5051748;28;20025;-70
2023/04/27 15:36:18;;;;;;;144.20;58.33;;;;;;;;;;5039459;28;20021;-70
2023/04/27 15:38:45;;;;;;;135.65;55.95;;;;;;;;;;5033490;28;20030;-70
2023/04/27 15:41:11;;;;;;;139.27;57.33;;;;;;;;;;5034507;28;20046;-74
2023/04/27 15:43:37;;;;;;;140.48;57.20;;;;;;;;;;5053742;28;20033;-71
2023/04/27 15:46:04;;;;;;;155.10;59.85;;;;;;;;;;5050728;28;20547;-73
2023/04/27 15:48:30;;;;;;;146.35;58.08;;;;;;;;;;5048380;28;20139;-71
2023/04/27 15:50:56;;;;;;;138.50;57.00;;;;;;;;;;5049313;28;20518;-73
2023/04/27 15:53:22;;;;;;;139.70;57.25;;;;;;;;;;5048560;28;20120;-73
2023/04/27 15:55:48;;;;;;;141.65;57.33;;;;;;;;;;5051725;28;20480;-73
2023/04/27 15:58:14;;;;;;;146.80;77.03;;;;;;;;;;5052687;28;20029;-72
2023/04/27 16:00:41;;;;;;;139.68;56.70;;;;;;;;;;5053469;28;20030;-73
2023/04/27 16:03:09;;;;;;;145.88;58.72;;;;;;;;;;5046885;28;20095;-73
2023/04/27 16:05:35;;;;;;;143.30;56.42;;;;;;;;;;5043546;28;20115;-72
2023/04/27 16:08:01;;;;;;;151.88;59.05;;;;;;;;;;5046669;28;20103;-72
2023/04/27 16:10:27;;;;;;;162.38;59.20;;;;;;;;;;5053558;28;20096;-71
2023/04/27 16:12:56;;;;;;;139.45;56.42;;;;;;;;;;5049941;28;20418;-74
2023/04/27 16:15:22;;;;;;;141.18;56.88;;;;;;;;;;5051840;28;20608;-73
2023/04/27 16:17:48;;;;;;;131.95;55.28;;;;;;;;;;5058876;28;20071;-73
2023/04/27 16:20:14;;;;;;;134.02;61.60;;;;;;;;;;5050191;28;20429;-73
2023/04/27 16:22:40;;;;;;;144.30;62.42;;;;;;;;;;5050499;28;20029;-72
2023/04/27 16:25:09;;;;;;;137.82;56.05;;;;;;;;;;5051141;28;20087;-73
2023/04/27 16:27:36;;;;;;;142.93;57.45;;;;;;;;;;5053284;28;20025;-74
2023/04/27 16:30:02;;;;;;;138.80;56.33;;;;;;;;;;5051860;28;20082;-74
2023/04/27 16:32:28;;;;;;;136.32;56.63;;;;;;;;;;5069894;28;20059;-73
2023/04/27 16:34:54;;;;;;;140.18;60.22;;;;;;;;;;5053623;28;20033;-74
2023/04/27 16:37:20;;;;;;;134.82;56.25;;;;;;;;;;5051301;28;20037;-73
2023/04/27 16:39:46;;;;;;;137.43;56.67;;;;;;;;;;5050494;28;20028;-73
2023/04/27 16:42:17;;;;;;;138.15;57.65;;;;;;;;;;5049968;28;20118;-74
2023/04/27 16:44:43;;;;;;;143.05;58.38;;;;;;;;;;5046637;28;20210;-71
2023/04/27 16:47:09;;;;;;;142.15;58.08;;;;;;;;;;5051567;28;20020;-70
2023/04/27 16:49:36;;;;;;;150.40;61.35;;;;;;;;;;5051303;28;20132;-71
2023/04/27 16:52:02;;;;;;;146.35;60.42;;;;;;;;;;5060811;28;20029;-71
2023/04/27 16:54:28;;;;;;;145.30;60.45;;;;;;;;;;5054421;28;20033;-72
2023/04/27 16:56:54;;;;;;;141.43;59.38;;;;;;;;;;5052255;28;20024;-73
2023/04/27 16:59:20;;;;;;;138.02;58.53;;;;;;;;;;5045560;28;20060;-72
2023/04/27 17:01:46;;;;;;;149.85;59.80;;;;;;;;;;5058612;28;20056;-72
2023/04/27 17:04:12;;;;;;;169.35;62.08;;;;;;;;;;5046322;28;20029;-72
2023/04/27 17:06:39;;;;;;;135.82;57.47;;;;;;;;;;5050349;28;20039;-71
2023/04/27 17:09:06;;;;;;;143.88;58.08;;;;;;;;;;5047002;28;20107;-71
2023/04/27 17:11:32;;;;;;;133.50;57.30;;;;;;;;;;5051696;28;20013;-71
2023/04/27 17:13:58;;;;;;;143.30;58.40;;;;;;;;;;5035443;28;20108;-72
2023/04/27 17:16:25;;;;;;;138.25;57.50;;;;;;;;;;5047402;28;20127;-72
2023/04/27 17:18:51;;;;;;;137.00;56.50;;;;;;;;;;5036880;28;20486;-72
2023/04/27 17:21:18;;;;;;;139.43;57.45;;;;;;;;;;5067743;28;20052;-71
2023/04/27 17:23:49;;;;;;;140.63;58.08;;;;;;;;;;5054062;28;20053;-71
2023/04/27 17:26:18;;;;;;;137.18;58.03;;;;;;;;;;5048759;28;20052;-71
2023/04/27 17:28:45;;;;;;;134.70;56.63;;;;;;;;;;5046893;28;20053;-72
2023/04/27 17:31:11;;;;;;;143.57;57.83;;;;;;;;;;5044133;28;20888;-71
2023/04/27 17:33:42;;;;;;;148.35;58.30;;;;;;;;;;5039595;28;20024;-73
2023/04/27 17:36:08;;;;;;;140.45;61.83;;;;;;;;;;5046183;28;20112;-73
2023/04/27 17:38:34;;;;;;;143.20;56.90;;;;;;;;;;5039199;28;20029;-73
2023/04/27 17:41:00;;;;;;;142.43;59.35;;;;;;;;;;5038405;28;20032;-73
2023/04/27 17:43:26;;;;;;;137.98;55.95;;;;;;;;;;5049760;28;20035;-72
2023/04/27 17:45:52;;;;;;;138.38;56.00;;;;;;;;;;5046987;28;20025;-73
2023/04/27 17:48:18;;;;;;;135.27;55.63;;;;;;;;;;5046686;28;20533;-72
2023/04/27 17:50:44;;;;;;;135.52;55.63;;;;;;;;;;5050216;28;20112;-72
2023/04/27 17:53:11;;;;;;;139.98;55.78;;;;;;;;;;5049999;28;20435;-73
2023/04/27 17:55:38;;;;;;;134.55;55.50;;;;;;;;;;5049120;28;20029;-72
2023/04/27 17:58:05;;;;;;;136.88;55.33;;;;;;;;;;5048704;28;20025;-72
2023/04/27 18:00:31;;;;;;;129.57;54.05;;;;;;;;;;5047068;28;20032;-73
2023/04/27 18:02:57;;;;;;;138.82;55.25;;;;;;;;;;5045901;28;20655;-73
2023/04/27 18:05:23;;;;;;;135.43;54.75;;;;;;;;;;5045699;28;20025;-72
2023/04/27 18:07:50;;;;;;;175.95;60.55;;;;;;;;;;5051453;28;20520;-72
2023/04/27 18:10:18;;;;;;;141.68;56.15;;;;;;;;;;5044091;28;20530;-72
2023/04/27 18:12:44;;;;;;;138.18;54.40;;;;;;;;;;5045966;28;20017;-72
2023/04/27 18:15:10;;;;;;;140.68;54.55;;;;;;;;;;5045453;28;20044;-72
2023/04/27 18:17:36;;;;;;;145.40;56.55;;;;;;;;;;5056174;28;20490;-72
2023/04/27 18:20:07;;;;;;;142.27;58.05;;;;;;;;;;5064515;28;20528;-75
2023/04/27 18:22:34;;;;;;;149.13;72.50;;;;;;;;;;5056540;28;20025;-73
2023/04/27 18:25:00;;;;;;;179.07;81.38;;;;;;;;;;5054403;28;20358;-71
2023/04/27 18:27:26;;;;;;;154.35;68.13;;;;;;;;;;5059628;28;20025;-71
2023/04/27 18:29:54;;;;;;;178.73;72.93;;;;;;;;;;5053821;28;20021;-71
2023/04/27 18:32:20;;;;;;;175.23;71.30;;;;;;;;;;5052869;28;20452;-71
2023/04/27 18:34:46;;;;;;;144.70;60.78;;;;;;;;;;5064948;28;20047;-71
2023/04/27 18:37:12;;;;;;;148.23;61.05;;;;;;;;;;5055146;28;20437;-71
2023/04/27 18:39:38;;;;;;;147.07;61.75;;;;;;;;;;5065144;28;20017;-71
2023/04/27 18:42:04;;;;;;;150.52;63.85;;;;;;;;;;5062008;28;20033;-70
2023/04/27 18:44:30;;;;;;;142.57;62.83;;;;;;;;;;5057198;28;20591;-71
2023/04/27 18:46:57;;;;;;;165.98;70.35;;;;;;;;;;5050324;28;20053;-72
2023/04/27 18:49:23;;;;;;;152.63;68.15;;;;;;;;;;5048352;28;20124;-73
2023/04/27 18:51:49;;;;;;;154.07;62.20;;;;;;;;;;5054399;28;20052;-73
2023/04/27 18:54:15;;;;;;;159.00;66.45;;;;;;;;;;5054596;28;20026;-73
2023/04/27 18:56:41;;;;;;;139.15;64.00;;;;;;;;;;5057780;28;20058;-73
2023/04/27 18:59:08;;;;;;;157.10;69.78;;;;;;;;;;5056267;28;20058;-71
2023/04/27 19:01:35;;;;;;;141.98;65.05;;;;;;;;;;5050809;28;20513;-72
2023/04/27 19:04:01;;;;;;;140.15;63.25;;;;;;;;;;5062171;28;20025;-72
2023/04/27 19:06:27;;;;;;;140.55;61.55;;;;;;;;;;5050392;28;20051;-72
2023/04/27 19:08:53;;;;;;;148.20;62.35;;;;;;;;;;5051624;28;20482;-74
2023/04/27 19:11:21;;;;;;;136.77;59.55;;;;;;;;;;5066065;28;20096;-73
2023/04/27 19:13:47;;;;;;;144.55;61.63;;;;;;;;;;5044676;28;20106;-72
2023/04/27 19:16:14;;;;;;;144.23;68.82;;;;;;;;;;5061430;28;20056;-71
2023/04/27 19:18:40;;;;;;;149.25;56.17;;;;;;;;;;5056521;28;20037;-72
2023/04/27 19:21:06;;;;;;;142.73;56.70;;;;;;;;;;5057847;28;20050;-72
2023/04/27 19:23:32;;;;;;;140.40;61.10;;;;;;;;;;5060259;28;20028;-72
2023/04/27 19:25:58;;;;;;;143.43;60.30;;;;;;;;;;5061081;28;20043;-72
2023/04/27 19:28:25;;;;;;;140.82;61.80;;;;;;;;;;5063906;28;20029;-72
2023/04/27 19:30:51;;;;;;;156.57;61.45;;;;;;;;;;5048346;28;20017;-72
2023/04/27 19:33:17;;;;;;;137.23;64.03;;;;;;;;;;5056231;28;20473;-73
2023/04/27 19:35:43;;;;;;;152.18;62.53;;;;;;;;;;5054144;28;20025;-73
2023/04/27 19:38:10;;;;;;;152.07;63.53;;;;;;;;;;5056764;28;20025;-74
2023/04/27 19:40:36;;;;;;;135.57;59.72;;;;;;;;;;5053822;28;20025;-73
2023/04/27 19:43:03;;;;;;;132.50;53.65;;;;;;;;;;5067376;22;20041;-73
2023/04/27 19:45:29;;;;;;;137.77;54.10;;;;;;;;;;5052506;28;20025;-73
2023/04/27 19:47:55;;;;;;;138.10;55.92;;;;;;;;;;5060886;28;20544;-74
2023/04/27 19:50:21;;;;;;;141.23;56.28;;;;;;;;;;5056760;28;20053;-73
2023/04/27 19:52:47;;;;;;;136.57;55.60;;;;;;;;;;5037313;28;20025;-74
2023/04/27 19:55:13;;;;;;;136.07;56.42;;;;;;;;;;5040621;28;20096;-74
2023/04/27 19:57:39;;;;;;;132.30;55.05;;;;;;;;;;5038160;28;20474;-74
2023/04/27 20:00:10;;;;;;;135.05;54.75;;;;;;;;;;5041657;28;20036;-74
2023/04/27 20:02:36;;;;;;;152.45;57.70;;;;;;;;;;5055345;28;20033;-73
2023/04/27 20:05:03;;;;;;;136.95;54.95;;;;;;;;;;5054774;28;20836;-73
2023/04/27 20:07:29;;;;;;;137.75;57.55;;;;;;;;;;5061509;28;20132;-73
2023/04/27 20:09:56;;;;;;;147.85;59.00;;;;;;;;;;5049975;28;20039;-73
2023/04/27 20:12:22;;;;;;;135.80;54.92;;;;;;;;;;5057655;28;20100;-75
2023/04/27 20:14:48;;;;;;;148.38;62.03;;;;;;;;;;5049180;28;20021;-74
2023/04/27 20:17:14;;;;;;;131.20;54.25;;;;;;;;;;5042957;28;20025;-75
2023/04/27 20:19:40;;;;;;;135.63;55.65;;;;;;;;;;5033489;28;20533;-73
2023/04/27 20:22:06;;;;;;;141.52;56.63;;;;;;;;;;5026971;28;20171;-73
2023/04/27 20:24:33;;;;;;;145.90;66.63;;;;;;;;;;5021764;28;20036;-72
2023/04/27 20:27:01;;;;;;;148.98;76.43;;;;;;;;;;5026794;28;20025;-73
2023/04/27 20:29:27;;;;;;;146.63;65.22;;;;;;;;;;5035075;28;20040;-74
2023/04/27 20:31:53;;;;;;;145.77;57.60;;;;;;;;;;5030356;28;20017;-74
2023/04/27 20:34:19;;;;;;;154.45;61.83;;;;;;;;;;5030337;28;20025;-75
2023/04/27 20:36:45;;;;;;;134.63;58.80;;;;;;;;;;5032364;28;20030;-74
2023/04/27 20:39:11;;;;;;;134.73;57.83;;;;;;;;;;5032612;28;20021;-74
2023/04/27 20:41:40;;;;;;;140.68;59.35;;;;;;;;;;5032588;28;20080;-74
2023/04/27 20:44:06;;;;;;;140.38;58.47;;;;;;;;;;5026548;28;20047;-74
2023/04/27 20:46:32;;;;;;;147.35;58.80;;;;;;;;;;5030667;28;20041;-74
2023/04/27 20:48:58;;;;;;;138.43;59.20;;;;;;;;;;5027281;28;20398;-75
2023/04/27 20:51:25;;;;;;;136.70;60.17;;;;;;;;;;5027930;28;20083;-74
2023/04/27 20:53:51;;;;;;;146.52;61.35;;;;;;;;;;5027681;28;20021;-74
2023/04/27 20:56:17;;;;;;;141.02;56.92;;;;;;;;;;5026179;28;20029;-73
2023/04/27 20:58:43;;;;;;;144.18;68.30;;;;;;;;;;5031039;28;20029;-74
2023/04/27 21:01:09;;;;;;;149.15;57.58;;;;;;;;;;5022912;28;20033;-73
2023/04/27 21:03:35;;;;;;;147.93;57.95;;;;;;;;;;5025062;28;20025;-72
2023/04/27 21:06:01;;;;;;;144.18;73.85;;;;;;;;;;5022513;28;20485;-72
2023/04/27 21:08:27;;;;;;;156.45;77.78;;;;;;;;;;5025772;28;20084;-72
2023/04/27 21:10:53;;;;;;;155.48;75.95;;;;;;;;;;5028436;28;20410;-72
2023/04/27 21:13:19;;;;;;;141.05;75.18;;;;;;;;;;5022398;28;20037;-72
2023/04/27 21:15:45;;;;;;;143.27;69.53;;;;;;;;;;5025380;28;20029;-72
2023/04/27 21:18:11;;;;;;;142.65;75.57;;;;;;;;;;5031037;28;20018;-72
2023/04/27 21:20:37;;;;;;;145.50;77.45;;;;;;;;;;5026958;28;20025;-73
2023/04/27 21:23:03;;;;;;;144.13;78.32;;;;;;;;;;5030277;28;20108;-72
2023/04/27 21:25:29;;;;;;;142.48;75.15;;;;;;;;;;5031949;28;20036;-72
2023/04/27 21:27:55;;;;;;;143.32;69.90;;;;;;;;;;5029186;28;20464;-72
2023/04/27 21:30:21;;;;;;;137.75;57.10;;;;;;;;;;5020376;28;20049;-71
2023/04/27 21:32:47;;;;;;;147.13;58.35;;;;;;;;;;5023559;28;20040;-74
2023/04/27 21:35:13;;;;;;;136.07;57.28;;;;;;;;;;5026660;28;20025;-75
2023/04/27 21:37:39;;;;;;;145.07;58.78;;;;;;;;;;5030414;28;20064;-71
2023/04/27 21:40:06;;;;;;;139.27;57.72;;;;;;;;;;5030051;28;20393;-73
2023/04/27 21:42:32;;;;;;;138.00;58.05;;;;;;;;;;5025767;28;20434;-74
2023/04/27 21:44:58;;;;;;;150.45;61.58;;;;;;;;;;5024450;28;20026;-73
2023/04/27 21:47:24;;;;;;;144.35;59.38;;;;;;;;;;5026556;28;20113;-72
2023/04/27 21:49:50;;;;;;;149.77;58.67;;;;;;;;;;5027783;28;20045;-71
2023/04/27 21:52:16;;;;;;;150.77;59.88;;;;;;;;;;5026668;28;20021;-72
